createdAt,value
2023-05-12T00:00:47.921Z,11.85
2023-05-12T00:03:14.596Z,11.25
2023-05-12T00:05:41.097Z,10.75
2023-05-12T00:08:07.485Z,11.52
2023-05-12T00:10:35.577Z,10.40
2023-05-12T00:13:02.571Z,10.68
2023-05-12T00:15:29.081Z,10.95
2023-05-12T00:17:55.672Z,11.88
2023-05-12T00:20:22.473Z,12.57
2023-05-12T00:22:48.934Z,9.43
2023-05-12T00:25:15.378Z,9.90
2023-05-12T00:27:41.779Z,12.45
2023-05-12T00:30:08.842Z,12.18
2023-05-12T00:32:35.242Z,9.70
2023-05-12T00:35:01.726Z,9.50
2023-05-12T00:37:28.526Z,9.07
2023-05-12T00:39:55.327Z,9.23
2023-05-12T00:42:21.743Z,9.65
2023-05-12T00:44:48.750Z,8.48
2023-05-12T00:47:15.550Z,9.45
2023-05-12T00:49:42.759Z,9.18
2023-05-12T00:52:09.710Z,9.95
2023-05-12T00:54:37.676Z,9.35
2023-05-12T00:57:04.405Z,9.80
2023-05-12T00:59:30.885Z,10.48
2023-05-12T01:01:57.462Z,9.93
2023-05-12T01:04:23.932Z,9.35
2023-05-12T01:07:09.888Z,10.82
2023-05-12T01:09:36.494Z,8.57
2023-05-12T01:12:02.957Z,8.80
2023-05-12T01:14:29.451Z,10.68
2023-05-12T01:16:59.805Z,9.85
2023-05-12T01:19:51.330Z,8.68
2023-05-12T01:22:18.213Z,10.70
2023-05-12T01:25:03.463Z,8.55
2023-05-12T01:27:31.387Z,10.38
2023-05-12T01:30:03.116Z,8.07
2023-05-12T01:32:30.614Z,9.40
2023-05-12T01:34:58.112Z,8.43
2023-05-12T01:37:27.456Z,10.52
2023-05-12T01:39:54.229Z,8.73
2023-05-12T01:42:21.111Z,10.30
2023-05-12T01:44:47.469Z,8.60
2023-05-12T01:47:15.658Z,8.77
2023-05-12T01:49:42.055Z,8.10
2023-05-12T01:52:08.520Z,10.30
2023-05-12T01:54:34.989Z,8.25
2023-05-12T01:57:01.343Z,7.78
2023-05-12T01:59:27.778Z,9.85
2023-05-12T02:01:54.270Z,8.75
2023-05-12T02:04:20.689Z,7.80
2023-05-12T02:06:47.354Z,7.50
2023-05-12T02:09:13.743Z,8.07
2023-05-12T02:11:40.311Z,8.65
2023-05-12T02:14:06.703Z,6.88
2023-05-12T02:16:33.144Z,7.00
2023-05-12T02:18:59.609Z,6.20
2023-05-12T02:21:26.243Z,6.80
2023-05-12T02:23:52.625Z,6.43
2023-05-12T02:26:19.555Z,8.60
2023-05-12T02:28:45.946Z,7.05
2023-05-12T02:31:12.282Z,8.05
2023-05-12T02:33:38.766Z,7.72
2023-05-12T02:36:05.653Z,8.43
2023-05-12T02:38:32.068Z,8.10
2023-05-12T02:40:58.522Z,7.82
2023-05-12T02:43:24.951Z,9.00
2023-05-12T02:45:51.874Z,8.80
2023-05-12T02:48:18.332Z,8.00
2023-05-12T02:50:44.797Z,8.80
2023-05-12T02:53:11.205Z,9.45
2023-05-12T02:55:37.729Z,9.48
2023-05-12T02:58:04.108Z,10.45
2023-05-12T03:00:30.532Z,10.32
2023-05-12T03:02:56.982Z,9.02
2023-05-12T03:05:23.460Z,9.32
2023-05-12T03:07:49.986Z,11.32
2023-05-12T03:10:19.813Z,10.85
2023-05-12T03:12:46.422Z,10.75
2023-05-12T03:15:12.883Z,13.63
2023-05-12T03:17:39.472Z,12.57
2023-05-12T03:20:06.793Z,13.70
2023-05-12T03:22:33.416Z,12.30
2023-05-12T03:24:59.827Z,12.25
2023-05-12T03:27:26.182Z,13.10
2023-05-12T03:29:52.556Z,15.05
2023-05-12T03:32:19.016Z,15.55
2023-05-12T03:34:45.393Z,14.55
2023-05-12T03:37:11.961Z,20.77
2023-05-12T03:39:38.805Z,15.90
2023-05-12T03:42:05.764Z,16.58
2023-05-12T03:44:32.183Z,18.15
2023-05-12T03:46:58.623Z,15.65
2023-05-12T03:49:25.269Z,16.73
2023-05-12T03:51:51.689Z,20.42
2023-05-12T03:54:18.024Z,17.98
2023-05-12T03:56:44.463Z,20.90
2023-05-12T03:59:12.073Z,23.33
2023-05-12T04:01:44.227Z,20.13
2023-05-12T04:04:10.745Z,21.38
2023-05-12T04:06:37.169Z,26.63
2023-05-12T04:09:04.182Z,22.58
2023-05-12T04:11:30.699Z,24.95
2023-05-12T04:13:57.081Z,24.40
2023-05-12T04:16:23.531Z,28.08
2023-05-12T04:18:50.073Z,28.17
2023-05-12T04:21:16.492Z,26.55
2023-05-12T04:23:42.893Z,28.95
2023-05-12T04:26:09.365Z,28.02
2023-05-12T04:28:37.029Z,24.85
2023-05-12T04:31:04.465Z,27.67
2023-05-12T04:33:31.095Z,24.27
2023-05-12T04:35:58.139Z,27.23
2023-05-12T04:38:24.761Z,25.70
2023-05-12T04:40:51.262Z,29.55
2023-05-12T04:45:46.890Z,29.73
2023-05-12T04:48:13.313Z,30.38
2023-05-12T04:50:39.873Z,30.13
2023-05-12T04:53:06.258Z,32.20
2023-05-12T04:55:32.955Z,33.83
2023-05-12T04:58:00.352Z,31.00
2023-05-12T05:00:41.659Z,30.20
2023-05-12T05:03:09.058Z,33.63
2023-05-12T05:08:02.029Z,29.85
2023-05-12T05:10:28.441Z,33.97
2023-05-12T05:12:54.886Z,33.38
2023-05-12T05:15:21.547Z,30.98
2023-05-12T05:17:49.581Z,34.03
2023-05-12T05:20:16.785Z,34.03
2023-05-12T05:22:43.479Z,35.25
2023-05-12T05:25:10.671Z,33.22
2023-05-12T05:27:38.575Z,35.10
2023-05-12T05:30:09.114Z,35.42
2023-05-12T05:32:40.515Z,34.55
2023-05-12T05:35:08.067Z,33.72
2023-05-12T05:37:34.661Z,32.75
2023-05-12T05:40:01.029Z,30.95
2023-05-12T05:42:27.530Z,32.47
2023-05-12T05:44:53.997Z,34.53
2023-05-12T05:47:20.364Z,29.33
2023-05-12T05:49:46.753Z,32.53
2023-05-12T05:52:13.176Z,38.75
2023-05-12T05:54:39.520Z,33.70
2023-05-12T05:57:06.331Z,33.88
2023-05-12T05:59:33.026Z,32.67
2023-05-12T06:01:59.550Z,34.88
2023-05-12T06:04:26.172Z,35.78
2023-05-12T06:06:52.718Z,35.00
2023-05-12T06:09:19.230Z,33.20
2023-05-12T06:11:45.593Z,33.95
2023-05-12T06:14:15.318Z,33.75
2023-05-12T06:16:41.773Z,37.55
2023-05-12T06:19:08.577Z,36.53
2023-05-12T06:21:35.237Z,34.20
2023-05-12T06:24:01.644Z,33.22
2023-05-12T06:26:28.009Z,30.05
2023-05-12T06:28:54.399Z,32.80
2023-05-12T06:31:20.918Z,30.02
2023-05-12T06:33:47.667Z,33.80
2023-05-12T06:36:14.142Z,31.73
2023-05-12T06:38:40.598Z,32.83
2023-05-12T06:41:07.015Z,34.60
2023-05-12T06:43:33.409Z,32.28
2023-05-12T06:45:59.800Z,31.45
2023-05-12T06:48:26.226Z,29.23
2023-05-12T06:50:52.606Z,31.02
2023-05-12T06:53:20.199Z,32.05
2023-05-12T06:55:47.172Z,30.25
2023-05-12T06:58:13.605Z,31.42
2023-05-12T07:00:40.044Z,28.65
2023-05-12T07:03:09.940Z,32.75
2023-05-12T07:05:37.033Z,30.17
2023-05-12T07:08:03.626Z,31.05
2023-05-12T07:10:30.103Z,30.38
2023-05-12T07:12:56.597Z,27.90
2023-05-12T07:15:23.137Z,28.35
2023-05-12T07:17:49.850Z,30.50
2023-05-12T07:20:16.780Z,31.15
2023-05-12T07:22:43.313Z,32.20
2023-05-12T07:25:09.861Z,28.50
2023-05-12T07:27:36.283Z,29.98
2023-05-12T07:30:02.746Z,30.30
2023-05-12T07:32:29.162Z,27.45
2023-05-12T07:34:55.615Z,26.60
2023-05-12T07:37:22.042Z,25.40
2023-05-12T07:39:48.530Z,24.63
2023-05-12T07:42:15.062Z,29.00
2023-05-12T07:44:41.553Z,26.13
2023-05-12T07:47:08.066Z,26.25
2023-05-12T07:49:34.465Z,23.42
2023-05-12T07:52:00.963Z,22.92
2023-05-12T07:54:27.362Z,22.92
2023-05-12T07:56:53.912Z,21.33
2023-05-12T07:59:20.303Z,25.27
2023-05-12T08:01:46.783Z,24.70
2023-05-12T08:04:13.264Z,24.55
2023-05-12T08:06:39.768Z,24.00
2023-05-12T08:09:06.377Z,21.33
2023-05-12T08:11:32.754Z,22.52
2023-05-12T08:13:59.149Z,21.65
2023-05-12T08:16:25.856Z,19.45
2023-05-12T08:18:52.396Z,20.38
2023-05-12T08:21:18.833Z,19.15
2023-05-12T08:23:45.229Z,20.27
2023-05-12T08:26:11.830Z,21.63
2023-05-12T08:28:38.150Z,20.10
2023-05-12T08:31:05.193Z,18.95
2023-05-12T08:35:58.057Z,18.10
2023-05-12T08:38:24.511Z,16.98
2023-05-12T08:41:07.209Z,20.05
2023-05-12T08:43:45.595Z,19.42
2023-05-12T08:46:13.172Z,19.17
2023-05-12T08:48:41.812Z,16.75
2023-05-12T08:51:13.104Z,18.17
2023-05-12T08:53:41.756Z,16.52
2023-05-12T08:58:42.759Z,16.55
2023-05-12T09:01:11.703Z,15.15
2023-05-12T09:03:38.895Z,14.50
2023-05-12T09:06:06.707Z,17.15
2023-05-12T09:08:34.853Z,14.10
2023-05-12T09:11:02.093Z,12.82
2023-05-12T09:13:34.377Z,13.43
2023-05-12T09:16:02.626Z,13.82
2023-05-12T09:18:50.142Z,12.38
2023-05-12T09:21:16.590Z,11.90
2023-05-12T09:24:12.434Z,12.07
2023-05-12T09:26:46.611Z,12.02
2023-05-12T09:29:20.748Z,9.85
2023-05-12T09:31:59.912Z,10.65
2023-05-12T09:34:31.896Z,10.85
2023-05-12T09:37:01.184Z,12.18
2023-05-12T09:39:28.810Z,10.35
2023-05-12T09:41:55.820Z,11.60
2023-05-12T09:46:49.846Z,11.52
2023-05-12T09:49:20.533Z,12.05
2023-05-12T09:51:47.504Z,13.38
2023-05-12T09:54:24.481Z,10.93
2023-05-12T09:56:52.602Z,11.55
2023-05-12T09:59:21.188Z,10.25
2023-05-12T10:01:48.485Z,9.55
2023-05-12T10:04:15.214Z,10.30
2023-05-12T10:06:42.933Z,9.93
2023-05-12T10:09:26.101Z,10.80
2023-05-12T10:11:54.089Z,14.43
2023-05-12T10:14:22.880Z,10.25
2023-05-12T10:16:50.218Z,9.32
2023-05-12T10:19:18.707Z,9.60
2023-05-12T10:21:46.673Z,9.85
2023-05-12T10:24:15.203Z,11.25
2023-05-12T10:26:43.194Z,8.70
2023-05-12T10:29:10.839Z,8.32
2023-05-12T10:31:38.550Z,8.85
2023-05-12T10:34:06.707Z,7.70
2023-05-12T10:36:45.847Z,8.38
2023-05-12T10:39:15.418Z,8.90
2023-05-12T10:41:42.882Z,7.88
2023-05-12T10:44:10.762Z,7.03
2023-05-12T10:46:37.541Z,7.47
2023-05-12T10:51:54.485Z,7.07
2023-05-12T10:54:25.172Z,7.03
2023-05-12T10:56:53.173Z,7.75
2023-05-12T10:59:25.261Z,7.43
2023-05-12T11:02:16.847Z,6.07
2023-05-12T11:04:51.035Z,6.32
2023-05-12T11:07:22.474Z,8.80
2023-05-12T11:12:19.592Z,6.30
2023-05-12T11:14:46.909Z,10.13
2023-05-12T11:17:14.859Z,11.57
2023-05-12T11:19:47.590Z,6.22
2023-05-12T11:22:17.250Z,6.57
2023-05-12T11:24:43.656Z,7.70
2023-05-12T11:27:18.527Z,7.20
2023-05-12T11:29:54.942Z,8.27
2023-05-12T11:32:21.354Z,6.72
2023-05-12T11:34:47.707Z,8.25
2023-05-12T11:37:14.149Z,6.28
2023-05-12T11:39:42.031Z,9.02
2023-05-12T11:42:13.539Z,6.72
2023-05-12T11:44:48.280Z,8.30
2023-05-12T11:47:16.060Z,9.85
2023-05-12T11:49:54.676Z,8.38
2023-05-12T11:52:23.188Z,7.78
2023-05-12T11:54:51.452Z,7.45
2023-05-12T11:57:32.277Z,7.00
2023-05-12T12:00:01.614Z,6.35
2023-05-12T12:02:28.460Z,8.13
2023-05-12T12:04:55.095Z,6.25
2023-05-12T12:07:36.346Z,7.43
2023-05-12T12:10:13.998Z,7.07
2023-05-12T12:12:41.585Z,6.82
2023-05-12T12:15:09.549Z,6.45
2023-05-12T12:17:36.120Z,6.18
2023-05-12T12:20:03.493Z,8.05
2023-05-12T12:22:34.126Z,7.72
2023-05-12T12:25:01.631Z,8.02
2023-05-12T12:27:28.112Z,7.88
2023-05-12T12:29:54.560Z,7.40
2023-05-12T12:32:20.928Z,6.93
2023-05-12T12:34:48.819Z,6.03
2023-05-12T12:37:16.056Z,10.90
2023-05-12T12:39:42.648Z,6.45
2023-05-12T12:42:09.524Z,7.32
2023-05-12T12:44:36.134Z,6.97
2023-05-12T12:47:02.544Z,6.40
2023-05-12T12:49:28.945Z,8.50
2023-05-12T12:51:55.853Z,8.07
2023-05-12T12:54:22.608Z,8.55
2023-05-12T12:56:49.079Z,7.93
2023-05-12T12:59:15.690Z,8.63
2023-05-12T13:01:43.494Z,7.45
2023-05-12T13:04:10.107Z,7.40
2023-05-12T13:09:04.038Z,9.32
2023-05-12T13:11:30.664Z,7.75
2023-05-12T13:13:57.097Z,8.57
2023-05-12T13:16:23.549Z,8.10
2023-05-12T13:18:50.007Z,9.05
2023-05-12T13:21:18.653Z,10.02
2023-05-12T13:23:45.255Z,9.10
2023-05-12T13:26:11.657Z,10.80
2023-05-12T13:28:38.031Z,7.97
2023-05-12T13:31:04.693Z,8.38
2023-05-12T13:33:31.064Z,8.55
2023-05-12T13:35:57.529Z,7.05
2023-05-12T13:38:23.955Z,9.43
2023-05-12T13:40:50.993Z,7.85
2023-05-12T13:43:17.919Z,7.90
2023-05-12T13:45:44.362Z,9.60
2023-05-12T13:48:10.799Z,9.70
2023-05-12T13:50:37.199Z,5.80
2023-05-12T13:53:03.644Z,6.88
2023-05-12T13:55:30.032Z,8.00
2023-05-12T13:57:56.417Z,6.32
2023-05-12T14:00:23.225Z,6.00
2023-05-12T14:02:49.850Z,6.70
2023-05-12T14:05:16.590Z,7.10
2023-05-12T14:07:42.979Z,8.95
2023-05-12T14:10:10.266Z,9.10
2023-05-12T14:12:41.358Z,7.80
2023-05-12T14:15:26.108Z,8.82
2023-05-12T14:17:56.030Z,6.50
2023-05-12T14:22:48.782Z,6.82
2023-05-12T14:25:19.169Z,5.97
2023-05-12T14:27:45.692Z,8.13
2023-05-12T14:30:12.525Z,8.32
2023-05-12T14:32:38.973Z,9.23
2023-05-12T14:35:07.642Z,6.90
2023-05-12T14:37:34.801Z,6.43
2023-05-12T14:40:01.348Z,12.25
2023-05-12T14:44:56.363Z,7.78
2023-05-12T14:48:00.015Z,7.18
2023-05-12T14:50:28.203Z,6.10
2023-05-12T14:52:54.641Z,9.73
2023-05-12T14:57:49.359Z,9.45
2023-05-12T15:00:16.289Z,8.27
2023-05-12T15:02:43.956Z,6.78
2023-05-12T15:05:13.315Z,7.43
2023-05-12T15:07:39.898Z,8.00
2023-05-12T15:12:33.908Z,8.88
2023-05-12T15:15:02.164Z,8.85
2023-05-12T15:17:28.986Z,8.13
2023-05-12T15:19:55.816Z,7.07
2023-05-12T15:22:22.682Z,7.35
2023-05-12T15:24:49.099Z,6.50
2023-05-12T15:27:15.556Z,7.60
2023-05-12T15:29:42.036Z,6.90
2023-05-12T15:32:08.625Z,8.15
2023-05-12T15:39:28.401Z,6.90
2023-05-12T15:41:54.765Z,7.72
2023-05-12T15:44:21.166Z,10.23
2023-05-12T15:46:47.718Z,7.00
2023-05-12T15:49:14.253Z,7.88
2023-05-12T15:51:40.990Z,8.82
2023-05-12T15:54:09.372Z,7.07
2023-05-12T15:56:36.167Z,6.97
2023-05-12T15:59:02.631Z,8.27
2023-05-12T16:01:29.031Z,5.68
2023-05-12T16:03:55.604Z,6.72
2023-05-12T16:06:22.266Z,7.15
2023-05-12T16:08:48.721Z,6.40
2023-05-12T16:11:15.160Z,8.63
2023-05-12T16:13:41.735Z,8.82
2023-05-12T16:16:08.267Z,6.85
2023-05-12T16:18:34.850Z,7.28
2023-05-12T16:21:04.448Z,8.30
2023-05-12T16:23:30.822Z,8.68
2023-05-12T16:25:57.326Z,9.32
2023-05-12T16:28:23.725Z,7.63
2023-05-12T16:30:50.074Z,7.65
2023-05-12T16:33:16.586Z,8.48
2023-05-12T16:35:42.937Z,8.77
2023-05-12T16:38:09.528Z,9.15
2023-05-12T16:40:36.132Z,7.85
2023-05-12T16:43:02.493Z,7.13
2023-05-12T16:45:28.898Z,8.50
2023-05-12T16:47:55.330Z,9.18
2023-05-12T16:50:21.883Z,10.02
2023-05-12T16:52:48.368Z,8.18
2023-05-12T16:55:14.763Z,9.57
2023-05-12T16:57:43.208Z,9.55
2023-05-12T17:00:10.572Z,8.30
2023-05-12T17:05:05.414Z,12.90
2023-05-12T17:07:31.762Z,10.23
2023-05-12T17:09:58.257Z,10.43
2023-05-12T17:12:24.728Z,9.55
2023-05-12T17:15:03.442Z,8.60
2023-05-12T17:17:34.016Z,8.73
2023-05-12T17:20:00.609Z,9.50
2023-05-12T17:22:27.992Z,10.48
2023-05-12T17:27:21.157Z,9.65
2023-05-12T17:29:47.577Z,10.35
2023-05-12T17:32:13.941Z,10.30
2023-05-12T17:34:40.419Z,10.77
2023-05-12T17:37:07.032Z,12.20
2023-05-12T17:39:34.171Z,10.05
2023-05-12T17:42:00.552Z,10.70
2023-05-12T17:44:26.950Z,10.23
2023-05-12T17:46:53.493Z,9.43
2023-05-12T17:49:19.979Z,10.80
2023-05-12T17:51:46.956Z,10.95
2023-05-12T17:54:13.441Z,9.27
2023-05-12T17:56:39.856Z,10.05
2023-05-12T17:59:06.912Z,8.18
2023-05-12T18:03:59.813Z,8.75
2023-05-12T18:06:26.752Z,10.18
2023-05-12T18:08:53.177Z,10.75
2023-05-12T18:11:20.016Z,7.10
2023-05-12T18:13:46.366Z,7.70
2023-05-12T18:16:21.614Z,9.95
2023-05-12T18:18:51.605Z,6.93
2023-05-12T18:21:18.066Z,8.57
2023-05-12T18:23:44.581Z,6.55
2023-05-12T18:26:11.139Z,8.05
2023-05-12T18:28:37.535Z,6.75
2023-05-12T18:31:15.042Z,6.47
2023-05-12T18:33:42.515Z,8.80
2023-05-12T18:36:09.478Z,7.03
2023-05-12T18:38:35.927Z,7.13
2023-05-12T18:41:02.346Z,6.28
2023-05-12T18:43:28.737Z,8.65
2023-05-12T18:45:55.273Z,7.43
2023-05-12T18:48:21.719Z,8.15
2023-05-12T18:50:48.129Z,7.80
2023-05-12T18:53:14.568Z,7.20
2023-05-12T18:55:40.979Z,8.65
2023-05-12T18:58:07.366Z,8.90
2023-05-12T19:00:35.428Z,7.78
2023-05-12T19:03:03.051Z,8.95
2023-05-12T19:05:30.980Z,8.73
2023-05-12T19:07:57.385Z,9.00
2023-05-12T19:10:23.791Z,7.70
2023-05-12T19:12:50.970Z,8.32
2023-05-12T19:17:44.223Z,8.35
2023-05-12T19:20:11.033Z,7.97
2023-05-12T19:22:37.555Z,19.00
2023-05-12T19:25:04.531Z,9.30
2023-05-12T19:27:31.033Z,9.23
2023-05-12T19:29:57.499Z,8.13
2023-05-12T19:32:24.202Z,11.35
2023-05-12T19:34:51.421Z,6.50
2023-05-12T19:37:19.304Z,7.93
2023-05-12T19:39:46.347Z,8.60
2023-05-12T19:42:12.778Z,7.90
2023-05-12T19:44:39.314Z,8.82
2023-05-12T19:47:05.936Z,8.00
2023-05-12T19:49:34.302Z,13.93
2023-05-12T19:52:01.495Z,9.60
2023-05-12T19:54:27.979Z,10.55
2023-05-12T19:56:54.446Z,11.73
2023-05-12T19:59:20.982Z,11.63
2023-05-12T20:01:49.139Z,13.90
2023-05-12T20:04:16.021Z,15.48
2023-05-12T20:06:42.961Z,12.50
2023-05-12T20:09:09.618Z,12.10
2023-05-12T20:11:36.078Z,9.95
2023-05-12T20:14:02.475Z,9.98
2023-05-12T20:16:29.531Z,16.17
2023-05-12T20:18:56.027Z,16.05
2023-05-12T20:21:22.546Z,12.75
2023-05-12T20:23:48.922Z,13.25
2023-05-12T20:26:15.295Z,15.30
2023-05-12T20:28:41.627Z,14.13
2023-05-12T20:31:09.620Z,10.45
2023-05-12T20:33:36.049Z,11.15
2023-05-12T20:36:02.438Z,15.18
2023-05-12T20:38:28.895Z,14.25
2023-05-12T20:40:55.297Z,12.63
2023-05-12T20:43:21.772Z,12.63
2023-05-12T20:45:48.328Z,12.52
2023-05-12T20:48:14.895Z,11.23
2023-05-12T20:50:42.154Z,13.63
2023-05-12T20:53:08.648Z,12.55
2023-05-12T20:55:35.277Z,12.18
2023-05-12T20:58:01.667Z,12.90
2023-05-12T21:00:28.036Z,14.68
2023-05-12T21:02:55.555Z,15.85
2023-05-12T21:05:22.245Z,14.45
2023-05-12T21:07:48.871Z,11.57
2023-05-12T21:10:15.271Z,12.38
2023-05-12T21:12:41.709Z,11.35
2023-05-12T21:15:10.620Z,13.13
2023-05-12T21:17:39.327Z,12.52
2023-05-12T21:20:10.830Z,12.85
2023-05-12T21:22:38.256Z,13.32
2023-05-12T21:27:31.688Z,13.68
2023-05-12T21:29:58.282Z,13.25
2023-05-12T21:32:24.802Z,14.85
2023-05-12T21:34:51.221Z,14.90
2023-05-12T21:37:17.656Z,12.30
2023-05-12T21:39:44.092Z,11.07
2023-05-12T21:42:10.539Z,13.95
2023-05-12T21:44:37.052Z,12.18
2023-05-12T21:47:04.257Z,14.75
2023-05-12T21:49:30.719Z,21.33
2023-05-12T21:51:57.306Z,12.75
2023-05-12T21:54:23.705Z,14.38
2023-05-12T21:56:50.631Z,12.70
2023-05-12T21:59:17.532Z,15.02
2023-05-12T22:01:44.127Z,13.15
2023-05-12T22:04:10.708Z,13.75
2023-05-12T22:06:37.212Z,14.95
2023-05-12T22:09:05.167Z,12.90
2023-05-12T22:11:31.590Z,12.35
2023-05-12T22:13:57.937Z,12.23
2023-05-12T22:16:31.201Z,13.85
2023-05-12T22:19:05.313Z,14.80
2023-05-12T22:21:32.394Z,12.88
2023-05-12T22:23:58.789Z,13.68
2023-05-12T22:26:25.154Z,12.13
2023-05-12T22:28:51.577Z,18.08
2023-05-12T22:31:18.001Z,12.25
2023-05-12T22:33:44.785Z,11.27
2023-05-12T22:36:11.179Z,18.15
2023-05-12T22:38:40.009Z,13.38
2023-05-12T22:41:06.631Z,11.90
2023-05-12T22:43:33.036Z,15.73
2023-05-12T22:46:06.720Z,10.70
2023-05-12T22:48:38.664Z,13.38
2023-05-12T22:51:05.758Z,12.90
2023-05-12T22:53:32.226Z,12.80
2023-05-12T22:56:01.241Z,13.98
2023-05-12T22:58:27.621Z,12.10
2023-05-12T23:00:54.133Z,12.52
2023-05-12T23:03:20.711Z,11.23
2023-05-12T23:05:47.359Z,11.98
2023-05-12T23:08:13.828Z,10.98
2023-05-12T23:10:44.314Z,12.30
2023-05-12T23:13:10.999Z,10.80
2023-05-12T23:15:37.411Z,10.15
2023-05-12T23:18:03.891Z,12.10
2023-05-12T23:20:31.554Z,14.40
2023-05-12T23:22:57.934Z,14.05
2023-05-12T23:25:24.457Z,11.27
2023-05-12T23:27:50.959Z,12.48
2023-05-12T23:30:17.417Z,10.10
2023-05-12T23:32:43.971Z,11.13
2023-05-12T23:35:10.586Z,10.70
2023-05-12T23:37:36.938Z,14.63
2023-05-12T23:40:04.010Z,9.73
2023-05-12T23:42:30.604Z,11.85
2023-05-12T23:44:57.074Z,12.50
2023-05-12T23:47:23.549Z,10.45
2023-05-12T23:49:50.028Z,14.15
2023-05-12T23:52:16.395Z,12.30
2023-05-12T23:54:42.836Z,11.98
2023-05-12T23:57:09.210Z,14.15
2023-05-12T23:59:36.072Z,11.98
